createdAt,value
2018-04-16T00:00:28.374Z,0
2018-04-16T00:01:38.179Z,0
2018-04-16T00:02:47.987Z,0
2018-04-16T00:03:58.079Z,0
2018-04-16T00:05:08.170Z,0
2018-04-16T00:06:17.979Z,0
2018-04-16T00:07:28.066Z,0
2018-04-16T00:08:38.196Z,0
2018-04-16T00:09:48.290Z,0
2018-04-16T00:10:58.383Z,0
2018-04-16T00:12:07.940Z,0
2018-04-16T00:13:18.021Z,0
2018-04-16T00:14:28.097Z,0
2018-04-16T00:15:38.209Z,0
2018-04-16T00:16:48.300Z,0
2018-04-16T00:17:58.365Z,0
2018-04-16T00:19:08.196Z,0
2018-04-16T00:20:18.287Z,0
2018-04-16T00:21:28.102Z,0
2018-04-16T00:22:38.192Z,0
2018-04-16T00:23:48.295Z,0
2018-04-16T00:24:57.850Z,0
2018-04-16T00:26:07.946Z,0
2018-04-16T00:27:17.761Z,0
2018-04-16T00:28:27.595Z,0
2018-04-16T00:29:37.689Z,0
2018-04-16T00:30:47.773Z,0
2018-04-16T00:31:57.860Z,0
2018-04-16T00:33:08.286Z,0
2018-04-16T00:34:18.372Z,0
2018-04-16T00:35:28.470Z,0
2018-04-16T00:36:38.550Z,0
2018-04-16T00:37:48.649Z,0
2018-04-16T00:38:58.740Z,0
2018-04-16T00:40:09.029Z,0
2018-04-16T00:41:19.116Z,0
2018-04-16T00:42:29.203Z,0
2018-04-16T00:43:39.281Z,0
2018-04-16T00:44:49.356Z,0
2018-04-16T00:45:59.196Z,0
2018-04-16T00:47:09.273Z,0
2018-04-16T00:48:19.348Z,0
2018-04-16T00:49:29.179Z,0
2018-04-16T00:50:39.257Z,0
2018-04-16T00:51:49.362Z,0
2018-04-16T00:52:58.924Z,0
2018-04-16T00:54:09.024Z,0
2018-04-16T00:55:19.132Z,0
2018-04-16T00:56:28.960Z,0
2018-04-16T00:57:39.047Z,0
2018-04-16T00:58:49.125Z,0
2018-04-16T00:59:58.953Z,0
2018-04-16T01:01:08.773Z,0
2018-04-16T01:02:18.855Z,0
2018-04-16T01:03:28.936Z,0
2018-04-16T01:04:38.752Z,0
2018-04-16T01:05:48.825Z,0
2018-04-16T01:06:58.678Z,0
2018-04-16T01:08:08.497Z,0
2018-04-16T01:09:18.583Z,0
2018-04-16T01:10:28.657Z,0
2018-04-16T01:11:38.469Z,0
2018-04-16T01:12:48.599Z,0
2018-04-16T01:13:58.677Z,0
2018-04-16T01:15:08.768Z,0
2018-04-16T01:16:18.597Z,0
2018-04-16T01:17:28.413Z,0
2018-04-16T01:18:38.239Z,0
2018-04-16T01:19:48.334Z,0
2018-04-16T01:20:58.423Z,0
2018-04-16T01:22:08.243Z,0
2018-04-16T01:23:18.345Z,0
2018-04-16T01:24:27.913Z,0
2018-04-16T01:25:37.729Z,0
2018-04-16T01:26:47.802Z,0
2018-04-16T01:27:57.869Z,0
2018-04-16T01:29:07.931Z,0
2018-04-16T01:30:17.806Z,0
2018-04-16T01:31:27.906Z,0
2018-04-16T01:32:38.013Z,0
2018-04-16T01:33:47.856Z,0
2018-04-16T01:34:57.951Z,0
2018-04-16T01:36:07.495Z,0
2018-04-16T01:37:17.596Z,0
2018-04-16T01:38:27.425Z,0
2018-04-16T01:39:37.502Z,0
2018-04-16T01:40:47.313Z,0
2018-04-16T01:41:57.136Z,0
2018-04-16T01:43:07.204Z,0
2018-04-16T01:44:17.020Z,0
2018-04-16T01:45:27.094Z,0
2018-04-16T01:46:37.182Z,0
2018-04-16T01:47:47.270Z,0
2018-04-16T01:48:57.092Z,0
2018-04-16T01:50:07.181Z,0
2018-04-16T01:51:17.280Z,0
2018-04-16T01:52:26.838Z,0
2018-04-16T01:53:36.942Z,0
2018-04-16T01:54:46.763Z,0
2018-04-16T01:55:56.834Z,0
2018-04-16T01:57:06.946Z,0
2018-04-16T01:58:16.766Z,0
2018-04-16T01:59:26.856Z,0
2018-04-16T02:00:36.931Z,0
2018-04-16T02:01:47.003Z,0
2018-04-16T02:02:57.087Z,0
2018-04-16T02:04:07.164Z,0
2018-04-16T02:05:17.304Z,0
2018-04-16T02:06:27.441Z,0
2018-04-16T02:07:37.273Z,0
2018-04-16T02:08:47.341Z,0
2018-04-16T02:09:57.429Z,0
2018-04-16T02:11:07.564Z,0
2018-04-16T02:12:17.366Z,0
2018-04-16T02:13:27.173Z,0
2018-04-16T02:14:37.291Z,0
2018-04-16T02:15:47.378Z,0
2018-04-16T02:16:57.183Z,0
2018-04-16T02:18:07.283Z,0
2018-04-16T02:19:17.374Z,0
2018-04-16T02:20:27.452Z,0
2018-04-16T02:21:37.605Z,0
2018-04-16T02:22:47.434Z,0
2018-04-16T02:23:57.247Z,0
2018-04-16T02:25:07.316Z,0
2018-04-16T02:26:17.409Z,0
2018-04-16T02:27:27.507Z,0
2018-04-16T02:28:37.605Z,0
2018-04-16T02:29:47.684Z,0
2018-04-16T02:30:57.775Z,0
2018-04-16T02:32:07.848Z,0
2018-04-16T02:33:17.929Z,0
2018-04-16T02:34:28.042Z,0
2018-04-16T02:35:38.126Z,0
2018-04-16T02:36:47.949Z,0
2018-04-16T02:37:57.755Z,0
2018-04-16T02:39:07.850Z,0
2018-04-16T02:40:17.659Z,0
2018-04-16T02:41:27.747Z,0
2018-04-16T02:42:37.880Z,0
2018-04-16T02:43:47.713Z,0
2018-04-16T02:44:57.536Z,0
2018-04-16T02:46:07.612Z,0
2018-04-16T02:47:17.717Z,0
2018-04-16T02:48:27.803Z,0
2018-04-16T02:49:37.914Z,0
2018-04-16T02:50:48.022Z,0
2018-04-16T02:51:57.595Z,0
2018-04-16T02:53:07.402Z,0
2018-04-16T02:54:17.479Z,0
2018-04-16T02:55:27.549Z,0
2018-04-16T02:56:37.622Z,0
2018-04-16T02:57:47.723Z,0
2018-04-16T02:58:57.815Z,0
2018-04-16T03:00:07.373Z,0
2018-04-16T03:01:17.458Z,0
2018-04-16T03:33:41.322Z,0
2018-04-16T03:34:51.155Z,0
2018-04-16T03:36:00.956Z,0
2018-04-16T03:37:11.044Z,0
2018-04-16T03:38:21.136Z,0
2018-04-16T03:39:31.251Z,0
2018-04-16T03:40:41.336Z,0
2018-04-16T03:41:51.422Z,0
2018-04-16T03:43:01.504Z,0
2018-04-16T03:44:11.328Z,0
2018-04-16T03:45:21.196Z,0
2018-04-16T03:46:31.031Z,4
2018-04-16T03:47:40.844Z,4
2018-04-16T03:48:50.651Z,4
2018-04-16T03:50:00.729Z,0
2018-04-16T03:51:10.819Z,0
2018-04-16T03:52:20.893Z,4
2018-04-16T03:53:30.714Z,4
2018-04-16T03:54:40.816Z,4
2018-04-16T03:55:50.903Z,4
2018-04-16T03:57:00.740Z,4
2018-04-16T03:58:10.809Z,8
2018-04-16T03:59:20.885Z,8
2018-04-16T04:00:30.700Z,8
2018-04-16T04:01:40.519Z,12
2018-04-16T04:02:50.324Z,12
2018-04-16T04:04:00.421Z,16
2018-04-16T04:05:10.509Z,20
2018-04-16T04:06:20.324Z,20
2018-04-16T04:07:30.416Z,28
2018-04-16T04:08:40.514Z,32
2018-04-16T04:09:50.588Z,36
2018-04-16T04:11:00.678Z,40
2018-04-16T04:12:10.762Z,48
2018-04-16T04:13:20.862Z,56
2018-04-16T04:14:30.682Z,60
2018-04-16T04:15:40.766Z,72
2018-04-16T04:16:50.854Z,76
2018-04-16T04:18:00.693Z,88
2018-04-16T04:19:10.795Z,100
2018-04-16T04:20:20.943Z,116
2018-04-16T04:21:31.036Z,132
2018-04-16T04:22:41.124Z,144
2018-04-16T04:23:50.930Z,156
2018-04-16T04:25:00.927Z,168
2018-04-16T04:26:11.215Z,176
2018-04-16T04:27:21.295Z,188
2018-04-16T04:28:31.108Z,188
2018-04-16T04:29:41.212Z,192
2018-04-16T04:30:51.307Z,192
2018-04-16T04:32:01.394Z,200
2018-04-16T04:33:11.482Z,212
2018-04-16T04:34:21.561Z,220
2018-04-16T04:35:31.635Z,240
2018-04-16T04:36:41.725Z,260
2018-04-16T04:37:51.848Z,292
2018-04-16T04:39:01.930Z,324
2018-04-16T04:40:12.025Z,348
2018-04-16T04:41:21.845Z,376
2018-04-16T04:42:31.657Z,392
2018-04-16T04:43:41.478Z,404
2018-04-16T04:44:51.558Z,400
2018-04-16T04:46:01.630Z,380
2018-04-16T04:47:11.737Z,372
2018-04-16T04:48:21.815Z,360
2018-04-16T04:49:31.673Z,356
2018-04-16T04:50:41.521Z,352
2018-04-16T04:51:51.329Z,352
2018-04-16T04:53:01.333Z,348
2018-04-16T04:54:11.482Z,352
2018-04-16T04:55:21.460Z,356
2018-04-16T04:56:31.553Z,368
2018-04-16T04:57:41.663Z,384
2018-04-16T04:58:51.757Z,392
2018-04-16T05:00:01.595Z,396
2018-04-16T05:01:11.209Z,396
2018-04-16T05:02:21.013Z,400
2018-04-16T05:03:31.113Z,412
2018-04-16T05:04:41.207Z,436
2018-04-16T05:05:51.030Z,456
2018-04-16T05:07:01.136Z,484
2018-04-16T05:08:11.216Z,500
2018-04-16T05:09:21.052Z,512
2018-04-16T05:10:31.154Z,532
2018-04-16T05:11:40.977Z,552
2018-04-16T05:12:51.075Z,568
2018-04-16T05:14:00.900Z,572
2018-04-16T05:15:10.722Z,572
2018-04-16T05:16:20.797Z,552
2018-04-16T05:17:30.903Z,532
2018-04-16T05:18:41.045Z,512
2018-04-16T05:19:51.114Z,484
2018-04-16T05:21:01.217Z,448
2018-04-16T05:22:11.050Z,416
2018-04-16T05:23:21.127Z,392
2018-04-16T05:24:31.217Z,368
2018-04-16T05:25:41.301Z,348
2018-04-16T05:26:51.442Z,328
2018-04-16T05:28:01.254Z,308
2018-04-16T05:29:11.314Z,296
2018-04-16T05:30:21.130Z,300
2018-04-16T05:31:30.949Z,312
2018-04-16T05:32:41.191Z,324
2018-04-16T05:33:51.013Z,340
2018-04-16T05:35:01.094Z,348
2018-04-16T05:36:10.907Z,356
2018-04-16T05:37:20.981Z,364
2018-04-16T05:38:31.081Z,376
2018-04-16T05:39:41.159Z,384
2018-04-16T05:40:51.253Z,396
2018-04-16T05:42:01.363Z,408
2018-04-16T05:43:11.450Z,428
2018-04-16T05:44:21.341Z,444
2018-04-16T05:45:31.434Z,468
2018-04-16T05:46:41.526Z,488
2018-04-16T05:47:51.612Z,520
2018-04-16T05:49:01.427Z,560
2018-04-16T05:50:11.528Z,608
2018-04-16T05:51:21.627Z,652
2018-04-16T05:52:31.733Z,696
2018-04-16T05:53:41.827Z,732
2018-04-16T05:54:51.890Z,776
2018-04-16T05:56:01.974Z,820
2018-04-16T05:57:12.073Z,888
2018-04-16T05:58:22.154Z,972
2018-04-16T05:59:32.244Z,1064
2018-04-16T06:00:42.333Z,1180
2018-04-16T06:01:52.423Z,1308
2018-04-16T06:03:02.495Z,1424
2018-04-16T06:04:12.324Z,1516
2018-04-16T06:05:22.411Z,1572
2018-04-16T06:06:32.524Z,1592
2018-04-16T06:07:42.664Z,1588
2018-04-16T06:08:52.735Z,1600
2018-04-16T06:10:02.865Z,1632
2018-04-16T06:11:12.966Z,1664
2018-04-16T06:12:22.798Z,1704
2018-04-16T06:13:33.080Z,1724
2018-04-16T06:14:43.186Z,1724
2018-04-16T06:15:53.263Z,1724
2018-04-16T06:17:03.348Z,1736
2018-04-16T06:18:13.167Z,1752
2018-04-16T06:19:23.255Z,1804
2018-04-16T06:20:33.374Z,1912
2018-04-16T06:21:43.464Z,2100
2018-04-16T06:22:53.264Z,2300
2018-04-16T06:24:03.089Z,2500
2018-04-16T06:25:13.256Z,2664
2018-04-16T06:26:23.361Z,2780
2018-04-16T06:27:33.853Z,2856
2018-04-16T06:28:43.948Z,2960
2018-04-16T06:29:53.785Z,3016
2018-04-16T06:31:03.597Z,3024
2018-04-16T06:32:13.684Z,3080
2018-04-16T06:33:23.774Z,3160
2018-04-16T06:34:33.603Z,3204
2018-04-16T06:35:43.697Z,3240
2018-04-16T06:36:53.983Z,3280
2018-04-16T06:38:03.973Z,3316
2018-04-16T06:39:14.099Z,3348
2018-04-16T06:40:24.187Z,3404
2018-04-16T06:41:34.290Z,3480
2018-04-16T06:42:44.468Z,3560
2018-04-16T06:43:54.567Z,3612
2018-04-16T06:45:04.400Z,3636
2018-04-16T06:46:14.238Z,3688
2018-04-16T06:47:24.076Z,3676
2018-04-16T06:48:33.899Z,3632
2018-04-16T06:49:43.998Z,3616
2018-04-16T06:50:54.081Z,3672
2018-04-16T06:52:04.194Z,3764
2018-04-16T06:53:14.075Z,3872
2018-04-16T06:54:24.265Z,3900
2018-04-16T06:55:33.565Z,3904
2018-04-16T06:56:43.703Z,3908
2018-04-16T06:57:53.543Z,3884
2018-04-16T06:59:03.621Z,3840
2018-04-16T07:00:13.809Z,3784
2018-04-16T07:01:23.969Z,3724
2018-04-16T07:02:33.839Z,3668
2018-04-16T07:03:43.688Z,3620
2018-04-16T07:04:53.555Z,3604
2018-04-16T07:06:32.706Z,3680
2018-04-16T07:07:42.818Z,3728
2018-04-16T07:08:52.640Z,3740
2018-04-16T07:10:02.470Z,3728
2018-04-16T07:11:27.310Z,3664
2018-04-16T07:12:37.388Z,3596
2018-04-16T07:13:47.196Z,3556
2018-04-16T07:14:57.013Z,3560
2018-04-16T07:16:07.102Z,3616
2018-04-16T07:17:17.000Z,3692
2018-04-16T07:18:26.855Z,3784
2018-04-16T07:19:36.952Z,3856
2018-04-16T07:20:47.030Z,3928
2018-04-16T07:21:57.125Z,3984
2018-04-16T07:23:07.283Z,4020
2018-04-16T07:24:17.502Z,4052
2018-04-16T07:25:27.666Z,4056
2018-04-16T07:26:37.753Z,4052
2018-04-16T07:27:47.856Z,4008
2018-04-16T07:28:57.713Z,3980
2018-04-16T07:30:07.552Z,3980
2018-04-16T07:31:17.634Z,4008
2018-04-16T07:32:27.701Z,4052
2018-04-16T07:33:37.972Z,4136
2018-04-16T07:35:02.914Z,4248
2018-04-16T07:36:13.001Z,4388
2018-04-16T07:37:23.084Z,4524
2018-04-16T07:38:33.166Z,4676
2018-04-16T07:39:43.256Z,4844
2018-04-16T07:40:53.379Z,5088
2018-04-16T07:42:03.193Z,5272
2018-04-16T07:43:13.017Z,5492
2018-04-16T07:44:23.104Z,5736
2018-04-16T07:45:33.232Z,5976
2018-04-16T07:46:43.105Z,6108
2018-04-16T07:47:52.926Z,6152
2018-04-16T07:49:03.137Z,6168
2018-04-16T07:50:13.320Z,6164
2018-04-16T07:51:23.141Z,6104
2018-04-16T07:53:02.287Z,5944
2018-04-16T07:54:12.119Z,5780
2018-04-16T07:55:22.206Z,5612
2018-04-16T07:56:32.025Z,5424
2018-04-16T07:57:42.187Z,5220
2018-04-16T07:58:52.014Z,4992
2018-04-16T08:00:01.827Z,4756
2018-04-16T08:01:11.379Z,4540
2018-04-16T08:02:21.474Z,4360
2018-04-16T08:03:31.638Z,4208
2018-04-16T08:04:41.759Z,4056
2018-04-16T08:05:52.045Z,3928
2018-04-16T08:07:02.156Z,3868
2018-04-16T08:08:12.282Z,3824
2018-04-16T08:09:22.436Z,3816
2018-04-16T08:10:32.560Z,3792
2018-04-16T08:11:42.657Z,3772
2018-04-16T08:12:52.735Z,3736
2018-04-16T08:14:02.867Z,3724
2018-04-16T08:15:12.611Z,3732
2018-04-16T08:16:22.704Z,3748
2018-04-16T08:17:32.993Z,3724
2018-04-16T08:18:43.108Z,3656
2018-04-16T08:19:53.196Z,3576
2018-04-16T08:21:03.018Z,3516
2018-04-16T08:22:13.171Z,3420
2018-04-16T08:23:23.076Z,3244
2018-04-16T08:24:33.184Z,3012
2018-04-16T08:25:44.335Z,2780
2018-04-16T08:26:54.418Z,2600
2018-04-16T08:28:04.528Z,2492
2018-04-16T08:29:14.594Z,2424
2018-04-16T08:30:24.705Z,2400
2018-04-16T08:32:18.735Z,2456
2018-04-16T08:33:28.861Z,2536
2018-04-16T08:34:38.833Z,2632
2018-04-16T08:35:48.697Z,2748
2018-04-16T08:36:58.796Z,2876
2018-04-16T08:38:08.906Z,2988
2018-04-16T08:39:28.393Z,3084
2018-04-16T08:40:38.773Z,3160
2018-04-16T08:41:49.726Z,3216
2018-04-16T08:43:00.078Z,3264
2018-04-16T08:44:10.362Z,3296
2018-04-16T08:45:20.214Z,3320
2018-04-16T08:46:45.002Z,3352
2018-04-16T08:47:55.095Z,3368
2018-04-16T08:49:04.928Z,3372
2018-04-16T08:50:14.762Z,3368
2018-04-16T08:51:24.863Z,3364
2018-04-16T08:52:35.135Z,3372
2018-04-16T08:53:45.288Z,3392
2018-04-16T08:54:55.394Z,3440
2018-04-16T08:56:05.246Z,3508
2018-04-16T08:57:15.076Z,3600
2018-04-16T08:58:24.988Z,3700
2018-04-16T08:59:35.130Z,3796
2018-04-16T09:00:45.030Z,3884
2018-04-16T09:01:55.138Z,3960
2018-04-16T09:03:05.275Z,4028
2018-04-16T09:04:15.383Z,4076
2018-04-16T09:05:25.492Z,4112
2018-04-16T09:06:35.606Z,4140
2018-04-16T09:07:45.728Z,4156
2018-04-16T09:08:55.745Z,4164
2018-04-16T09:10:05.865Z,4160
2018-04-16T09:11:15.968Z,4152
2018-04-16T09:12:26.068Z,4144
2018-04-16T09:13:35.958Z,4140
2018-04-16T09:14:46.040Z,4148
2018-04-16T09:15:56.153Z,4188
2018-04-16T09:17:06.266Z,4268
2018-04-16T09:18:16.097Z,4384
2018-04-16T09:19:26.224Z,4520
2018-04-16T09:20:36.108Z,4668
2018-04-16T09:21:46.210Z,4820
2018-04-16T09:22:56.337Z,4960
2018-04-16T09:24:06.445Z,5068
2018-04-16T09:25:16.547Z,5152
2018-04-16T09:26:26.697Z,5212
2018-04-16T09:27:36.963Z,5256
2018-04-16T09:28:47.110Z,5308
2018-04-16T09:29:56.949Z,5372
2018-04-16T09:31:07.054Z,5448
2018-04-16T09:32:17.129Z,5544
2018-04-16T09:33:27.201Z,5636
2018-04-16T09:34:37.293Z,5736
2018-04-16T09:35:47.377Z,5852
2018-04-16T09:36:57.466Z,5936
2018-04-16T09:38:07.715Z,6024
2018-04-16T09:39:17.867Z,6104
2018-04-16T09:40:27.951Z,6196
2018-04-16T09:41:38.053Z,6280
2018-04-16T09:42:48.141Z,6352
2018-04-16T09:43:58.233Z,6428
2018-04-16T09:45:08.323Z,6496
2018-04-16T09:46:18.430Z,6552
2018-04-16T09:47:28.532Z,6592
2018-04-16T09:48:38.624Z,6632
2018-04-16T09:49:48.758Z,6644
2018-04-16T09:50:58.598Z,6648
2018-04-16T09:52:08.712Z,6608
2018-04-16T09:53:18.527Z,6532
2018-04-16T09:54:28.613Z,6456
2018-04-16T09:55:38.491Z,6412
2018-04-16T09:56:48.584Z,6436
2018-04-16T09:57:58.682Z,6472
2018-04-16T09:59:08.776Z,6532
2018-04-16T10:00:18.710Z,6604
2018-04-16T10:01:28.853Z,6620
2018-04-16T10:02:39.206Z,6660
2018-04-16T10:03:49.053Z,6768
2018-04-16T10:04:58.888Z,6872
2018-04-16T10:06:09.085Z,6928
2018-04-16T10:07:19.237Z,6924
2018-04-16T10:08:29.326Z,6964
2018-04-16T10:09:39.400Z,7108
2018-04-16T10:10:49.517Z,7244
2018-04-16T10:11:59.728Z,7276
2018-04-16T10:13:09.837Z,7216
2018-04-16T10:14:19.923Z,7164
2018-04-16T10:15:30.055Z,6992
2018-04-16T10:16:40.163Z,6780
2018-04-16T10:17:50.245Z,6580
2018-04-16T10:19:00.397Z,6560
2018-04-16T10:20:10.215Z,6628
2018-04-16T10:21:20.330Z,6596
2018-04-16T10:22:30.456Z,6496
2018-04-16T10:23:40.552Z,6480
2018-04-16T10:24:50.656Z,6644
2018-04-16T10:26:00.763Z,6828
2018-04-16T10:27:10.600Z,6976
2018-04-16T10:28:20.770Z,7044
2018-04-16T10:29:30.866Z,6940
2018-04-16T10:30:41.000Z,6880
2018-04-16T10:31:51.093Z,6852
2018-04-16T10:33:01.193Z,6872
2018-04-16T10:34:11.397Z,6980
2018-04-16T10:35:21.633Z,7056
2018-04-16T10:36:31.748Z,7080
2018-04-16T10:37:41.624Z,7124
2018-04-16T10:38:51.459Z,7192
2018-04-16T10:40:01.554Z,7304
2018-04-16T10:41:11.559Z,7380
2018-04-16T10:42:21.719Z,7372
2018-04-16T10:43:31.823Z,7344
2018-04-16T10:44:41.912Z,7320
2018-04-16T10:45:52.110Z,7196
2018-04-16T10:47:02.214Z,6920
2018-04-16T10:48:12.052Z,6844
2018-04-16T10:49:22.150Z,6932
2018-04-16T10:50:32.257Z,6960
2018-04-16T10:51:42.389Z,6988
2018-04-16T10:52:52.491Z,7016
2018-04-16T10:54:02.360Z,6980
2018-04-16T10:55:11.929Z,6916
2018-04-16T10:56:21.503Z,6848
2018-04-16T10:57:31.634Z,6800
2018-04-16T10:58:41.486Z,6820
2018-04-16T10:59:52.041Z,6852
2018-04-16T11:01:02.431Z,6852
2018-04-16T11:02:12.688Z,6836
2018-04-16T11:03:22.779Z,6812
2018-04-16T11:04:32.874Z,6720
2018-04-16T11:05:43.029Z,6648
2018-04-16T11:06:53.134Z,6680
2018-04-16T11:08:03.243Z,6784
2018-04-16T11:09:12.823Z,6872
2018-04-16T11:10:22.927Z,6948
2018-04-16T11:11:33.039Z,6980
2018-04-16T11:12:43.150Z,7036
2018-04-16T11:13:53.260Z,7132
2018-04-16T11:15:03.345Z,7236
2018-04-16T11:16:13.187Z,7276
2018-04-16T11:17:23.344Z,7280
2018-04-16T11:18:33.453Z,7316
2018-04-16T11:19:43.307Z,7284
2018-04-16T11:20:53.403Z,7284
2018-04-16T11:22:03.518Z,7264
2018-04-16T11:23:13.388Z,7276
2018-04-16T11:24:23.491Z,7252
2018-04-16T11:25:33.576Z,7172
2018-04-16T11:26:43.693Z,7020
2018-04-16T11:27:53.568Z,6860
2018-04-16T11:29:03.951Z,6624
2018-04-16T11:30:14.095Z,6456
2018-04-16T11:31:24.208Z,6428
2018-04-16T11:32:34.322Z,6484
2018-04-16T11:33:44.424Z,6588
2018-04-16T11:34:54.522Z,6632
2018-04-16T11:36:04.613Z,6584
2018-04-16T11:37:14.462Z,6520
2018-04-16T11:38:24.577Z,6616
2018-04-16T11:39:34.678Z,6812
2018-04-16T11:40:44.827Z,6932
2018-04-16T11:41:54.924Z,6992
2018-04-16T11:43:05.045Z,7024
2018-04-16T11:44:15.156Z,7076
2018-04-16T11:45:25.250Z,7240
2018-04-16T11:46:35.118Z,7396
2018-04-16T11:47:45.221Z,7440
2018-04-16T11:48:55.051Z,7324
2018-04-16T11:50:05.159Z,7164
2018-04-16T11:51:15.252Z,6984
2018-04-16T11:52:25.237Z,6856
2018-04-16T11:53:35.085Z,6752
2018-04-16T11:54:45.176Z,6612
2018-04-16T11:55:55.304Z,6392
2018-04-16T11:57:05.454Z,6056
2018-04-16T11:58:15.601Z,5624
2018-04-16T11:59:25.448Z,5352
2018-04-16T12:00:35.576Z,5300
2018-04-16T12:01:45.138Z,5340
2018-04-16T12:02:55.229Z,5372
2018-04-16T12:04:05.121Z,5384
2018-04-16T12:05:15.223Z,5392
2018-04-16T12:06:25.350Z,5344
2018-04-16T12:07:35.471Z,5292
2018-04-16T12:08:45.598Z,5296
2018-04-16T12:09:55.749Z,5284
2018-04-16T12:11:05.585Z,5264
2018-04-16T12:12:15.919Z,5288
2018-04-16T12:13:26.112Z,5348
2018-04-16T12:14:36.226Z,5428
2018-04-16T12:15:46.411Z,5388
2018-04-16T12:16:56.254Z,5244
2018-04-16T12:18:06.353Z,5032
2018-04-16T12:19:16.494Z,4792
2018-04-16T12:20:26.342Z,4604
2018-04-16T12:21:36.471Z,4544
2018-04-16T12:22:46.591Z,4600
2018-04-16T12:23:56.748Z,4664
2018-04-16T12:25:06.851Z,4648
2018-04-16T12:26:16.977Z,4500
2018-04-16T12:27:27.139Z,4308
2018-04-16T12:28:37.364Z,4128
2018-04-16T12:29:47.515Z,3960
2018-04-16T12:30:57.416Z,3840
2018-04-16T12:32:07.303Z,3772
2018-04-16T12:33:17.192Z,3748
2018-04-16T12:34:27.296Z,3756
2018-04-16T12:35:37.389Z,3752
2018-04-16T12:36:47.209Z,3712
2018-04-16T12:37:57.368Z,3628
2018-04-16T12:39:07.602Z,3520
2018-04-16T12:40:17.861Z,3424
2018-04-16T12:41:27.421Z,3372
2018-04-16T12:42:37.554Z,3312
2018-04-16T12:43:47.661Z,3212
2018-04-16T12:44:57.764Z,3140
2018-04-16T12:46:07.857Z,3112
2018-04-16T12:47:17.959Z,3124
2018-04-16T12:48:28.075Z,3168
2018-04-16T12:49:38.255Z,3240
2018-04-16T12:50:48.392Z,3312
2018-04-16T12:51:58.495Z,3316
2018-04-16T12:53:08.347Z,3312
2018-04-16T12:54:17.921Z,3352
2018-04-16T12:55:28.000Z,3412
2018-04-16T12:56:38.104Z,3476
2018-04-16T12:57:48.174Z,3484
2018-04-16T12:58:58.283Z,3452
2018-04-16T13:00:08.382Z,3392
2018-04-16T13:01:18.469Z,3352
2018-04-16T13:02:28.663Z,3364
2018-04-16T13:03:38.494Z,3408
2018-04-16T13:04:48.576Z,3464
2018-04-16T13:05:58.656Z,3496
2018-04-16T13:07:08.748Z,3504
2018-04-16T13:08:18.903Z,3432
2018-04-16T13:09:29.005Z,3316
2018-04-16T13:10:39.102Z,3192
2018-04-16T13:11:48.657Z,3140
2018-04-16T13:12:58.506Z,3164
2018-04-16T13:14:08.658Z,3240
2018-04-16T13:15:18.754Z,3320
2018-04-16T13:16:28.593Z,3404
2018-04-16T13:17:38.421Z,3492
2018-04-16T13:18:48.515Z,3588
2018-04-16T13:19:58.622Z,3684
2018-04-16T13:21:08.727Z,3788
2018-04-16T13:22:18.819Z,3876
2018-04-16T13:23:28.892Z,3932
2018-04-16T13:24:39.029Z,3948
2018-04-16T13:25:48.909Z,3936
2018-04-16T13:26:58.979Z,3912
2018-04-16T13:28:09.060Z,3884
2018-04-16T13:29:18.891Z,3872
2018-04-16T13:30:28.982Z,3876
2018-04-16T13:31:39.078Z,3912
2018-04-16T13:32:49.182Z,3972
2018-04-16T13:33:58.740Z,4048
2018-04-16T13:35:08.838Z,4152
2018-04-16T13:36:18.919Z,4256
2018-04-16T13:37:29.031Z,4332
2018-04-16T13:38:39.134Z,4364
2018-04-16T13:39:49.223Z,4328
2018-04-16T13:40:59.301Z,4228
2018-04-16T13:42:09.160Z,4132
2018-04-16T13:43:19.069Z,4088
2018-04-16T13:44:29.162Z,4076
2018-04-16T13:45:38.735Z,4104
2018-04-16T13:46:48.822Z,4148
2018-04-16T13:47:58.988Z,4160
2018-04-16T13:49:09.083Z,4108
2018-04-16T13:50:19.187Z,4012
2018-04-16T13:51:29.272Z,3860
2018-04-16T13:52:39.372Z,3684
2018-04-16T13:53:49.438Z,3524
2018-04-16T13:54:59.259Z,3428
2018-04-16T13:56:09.340Z,3396
2018-04-16T13:57:19.165Z,3420
2018-04-16T13:58:29.244Z,3420
2018-04-16T13:59:39.358Z,3372
2018-04-16T14:00:48.909Z,3280
2018-04-16T14:01:59.014Z,3132
2018-04-16T14:03:09.101Z,2940
2018-04-16T14:04:19.197Z,2776
2018-04-16T14:05:29.295Z,2660
2018-04-16T14:06:39.400Z,2572
2018-04-16T14:07:49.478Z,2524
2018-04-16T14:08:59.568Z,2516
2018-04-16T14:10:09.657Z,2532
2018-04-16T14:11:19.482Z,2536
2018-04-16T14:12:29.662Z,2504
2018-04-16T14:13:39.209Z,2508
2018-04-16T14:14:49.431Z,2592
2018-04-16T14:15:59.260Z,2660
2018-04-16T14:17:09.335Z,2716
2018-04-16T14:18:19.424Z,2764
2018-04-16T14:19:29.521Z,2776
2018-04-16T14:20:39.614Z,2712
2018-04-16T14:21:49.443Z,2572
2018-04-16T14:22:59.554Z,2388
2018-04-16T14:24:09.379Z,2220
2018-04-16T14:25:19.195Z,2100
2018-04-16T14:26:29.015Z,2008
2018-04-16T14:27:39.123Z,1924
2018-04-16T14:28:49.226Z,1860
2018-04-16T14:29:59.322Z,1800
2018-04-16T14:31:09.401Z,1748
2018-04-16T14:32:18.946Z,1732
2018-04-16T14:33:29.027Z,1736
2018-04-16T14:34:39.134Z,1760
2018-04-16T14:35:49.052Z,1772
2018-04-16T14:36:58.853Z,1796
2018-04-16T14:38:08.668Z,1864
2018-04-16T14:39:18.504Z,1904
2018-04-16T14:40:28.594Z,1860
2018-04-16T14:41:38.687Z,1760
2018-04-16T14:42:48.769Z,1648
2018-04-16T14:43:58.608Z,1540
2018-04-16T14:45:08.699Z,1444
2018-04-16T14:46:18.760Z,1372
2018-04-16T14:47:28.599Z,1316
2018-04-16T14:48:38.671Z,1272
2018-04-16T14:49:48.775Z,1260
2018-04-16T14:50:58.605Z,1272
2018-04-16T14:52:08.691Z,1308
2018-04-16T14:53:18.806Z,1376
2018-04-16T14:54:28.899Z,1452
2018-04-16T14:55:38.741Z,1504
2018-04-16T14:56:48.756Z,1548
2018-04-16T14:57:58.897Z,1572
2018-04-16T14:59:09.087Z,1560
2018-04-16T15:00:19.188Z,1492
2018-04-16T15:01:29.033Z,1420
2018-04-16T15:02:38.593Z,1364
2018-04-16T15:03:48.430Z,1328
2018-04-16T15:04:58.572Z,1264
2018-04-16T15:06:08.660Z,1188
2018-04-16T15:07:18.747Z,1124
2018-04-16T15:08:28.849Z,1056
2018-04-16T15:09:38.955Z,1004
2018-04-16T15:10:48.517Z,964
2018-04-16T15:11:58.338Z,948
2018-04-16T15:13:08.446Z,952
2018-04-16T15:14:18.293Z,964
2018-04-16T15:15:28.392Z,984
2018-04-16T15:16:38.531Z,1000
2018-04-16T15:17:47.833Z,996
2018-04-16T15:18:57.917Z,972
2018-04-16T15:20:08.015Z,936
2018-04-16T15:21:17.826Z,896
2018-04-16T15:22:27.697Z,864
2018-04-16T15:23:37.792Z,832
2018-04-16T15:24:47.843Z,792
2018-04-16T15:25:58.095Z,756
2018-04-16T15:27:08.179Z,740
2018-04-16T15:28:18.334Z,732
2018-04-16T15:29:28.201Z,720
2018-04-16T15:30:38.014Z,684
2018-04-16T15:31:48.104Z,632
2018-04-16T15:32:57.943Z,580
2018-04-16T15:34:08.111Z,540
2018-04-16T15:35:17.945Z,508
2018-04-16T15:36:28.046Z,484
2018-04-16T15:37:38.123Z,472
2018-04-16T15:38:48.210Z,460
2018-04-16T15:39:58.336Z,460
2018-04-16T15:41:08.432Z,460
2018-04-16T15:42:18.299Z,456
2018-04-16T15:43:28.394Z,456
2018-04-16T15:44:38.206Z,472
2018-04-16T15:45:48.298Z,488
2018-04-16T15:46:58.127Z,508
2018-04-16T15:48:08.240Z,524
2018-04-16T15:49:18.346Z,544
2018-04-16T15:50:27.658Z,556
2018-04-16T15:51:37.803Z,568
2018-04-16T15:52:47.904Z,576
2018-04-16T15:53:58.005Z,588
2018-04-16T15:55:08.086Z,600
2018-04-16T15:56:18.194Z,616
2018-04-16T15:57:28.334Z,644
2018-04-16T15:58:38.441Z,680
2018-04-16T15:59:48.532Z,720
2018-04-16T16:00:58.636Z,756
2018-04-16T16:02:08.468Z,768
2018-04-16T16:03:18.332Z,744
2018-04-16T16:04:28.570Z,696
2018-04-16T16:05:38.688Z,624
2018-04-16T16:06:48.506Z,548
2018-04-16T16:07:58.348Z,496
2018-04-16T16:09:08.438Z,460
2018-04-16T16:10:18.533Z,448
2018-04-16T16:11:28.645Z,452
2018-04-16T16:12:38.743Z,448
2018-04-16T16:13:48.843Z,444
2018-04-16T16:14:58.979Z,428
2018-04-16T16:16:08.811Z,408
2018-04-16T16:17:18.676Z,384
2018-04-16T16:18:28.774Z,364
2018-04-16T16:19:38.875Z,348
2018-04-16T16:20:49.107Z,336
2018-04-16T16:21:59.299Z,336
2018-04-16T16:23:09.425Z,336
2018-04-16T16:24:19.543Z,336
2018-04-16T16:25:29.649Z,340
2018-04-16T16:26:39.788Z,348
2018-04-16T16:27:49.622Z,360
2018-04-16T16:28:59.759Z,364
2018-04-16T16:30:09.611Z,364
2018-04-16T16:31:19.720Z,360
2018-04-16T16:32:29.861Z,356
2018-04-16T16:33:39.971Z,352